sensor_id;sensor_type;location;lat;lon;timestamp;P1;durP1;ratioP1;P2;durP2;ratioP2
2544;SDS011;36212;48.838;9.142;2022-08-30T00:01:10;7.30;;;6.60;;
2544;SDS011;36212;48.838;9.142;2022-08-30T00:03:52;7.23;;;6.33;;
2544;SDS011;36212;48.838;9.142;2022-08-30T00:06:28;7.40;;;6.80;;
2544;SDS011;36212;48.838;9.142;2022-08-30T00:09:00;6.70;;;6.10;;
2544;SDS011;36212;48.838;9.142;2022-08-30T00:11:33;7.83;;;7.10;;
2544;SDS011;36212;48.838;9.142;2022-08-30T00:14:05;6.90;;;6.23;;
2544;SDS011;36212;48.838;9.142;2022-08-30T00:16:37;7.30;;;6.60;;
2544;SDS011;36212;48.838;9.142;2022-08-30T00:19:09;6.47;;;6.00;;
2544;SDS011;36212;48.838;9.142;2022-08-30T00:21:41;6.97;;;6.37;;
2544;SDS011;36212;48.838;9.142;2022-08-30T00:24:13;7.77;;;7.07;;
2544;SDS011;36212;48.838;9.142;2022-08-30T00:26:45;7.60;;;7.00;;
2544;SDS011;36212;48.838;9.142;2022-08-30T00:29:17;6.70;;;6.10;;
2544;SDS011;36212;48.838;9.142;2022-08-30T00:31:50;6.57;;;6.07;;
2544;SDS011;36212;48.838;9.142;2022-08-30T00:34:22;8.17;;;6.83;;
2544;SDS011;36212;48.838;9.142;2022-08-30T00:36:54;5.83;;;5.53;;
2544;SDS011;36212;48.838;9.142;2022-08-30T00:39:27;6.73;;;6.23;;
2544;SDS011;36212;48.838;9.142;2022-08-30T00:41:59;6.97;;;6.33;;
2544;SDS011;36212;48.838;9.142;2022-08-30T00:44:31;6.70;;;6.20;;
2544;SDS011;36212;48.838;9.142;2022-08-30T00:47:03;6.77;;;6.23;;
2544;SDS011;36212;48.838;9.142;2022-08-30T00:49:36;7.23;;;6.60;;
2544;SDS011;36212;48.838;9.142;2022-08-30T00:52:15;7.10;;;6.40;;
2544;SDS011;36212;48.838;9.142;2022-08-30T00:54:50;7.13;;;6.63;;
2544;SDS011;36212;48.838;9.142;2022-08-30T00:57:23;6.80;;;6.17;;
2544;SDS011;36212;48.838;9.142;2022-08-30T00:59:55;8.50;;;6.10;;
2544;SDS011;36212;48.838;9.142;2022-08-30T01:02:28;6.47;;;5.97;;
2544;SDS011;36212;48.838;9.142;2022-08-30T01:05:04;6.13;;;5.70;;
2544;SDS011;36212;48.838;9.142;2022-08-30T01:07:41;6.60;;;6.00;;
2544;SDS011;36212;48.838;9.142;2022-08-30T01:10:13;6.20;;;5.80;;
2544;SDS011;36212;48.838;9.142;2022-08-30T01:12:46;8.10;;;7.30;;
2544;SDS011;36212;48.838;9.142;2022-08-30T01:15:19;8.87;;;6.27;;
2544;SDS011;36212;48.838;9.142;2022-08-30T01:17:52;6.40;;;5.80;;
2544;SDS011;36212;48.838;9.142;2022-08-30T01:20:27;6.73;;;6.07;;
2544;SDS011;36212;48.838;9.142;2022-08-30T01:23:12;6.77;;;6.33;;
2544;SDS011;36212;48.838;9.142;2022-08-30T01:25:49;6.10;;;5.63;;
2544;SDS011;36212;48.838;9.142;2022-08-30T01:28:23;7.33;;;6.73;;
2544;SDS011;36212;48.838;9.142;2022-08-30T01:30:58;7.47;;;6.77;;
2544;SDS011;36212;48.838;9.142;2022-08-30T01:33:32;10.13;;;6.90;;
2544;SDS011;36212;48.838;9.142;2022-08-30T01:36:08;7.03;;;6.53;;
2544;SDS011;36212;48.838;9.142;2022-08-30T01:38:48;7.07;;;6.47;;
2544;SDS011;36212;48.838;9.142;2022-08-30T01:41:28;6.82;;;6.32;;
2544;SDS011;36212;48.838;9.142;2022-08-30T01:44:06;7.23;;;6.70;;
2544;SDS011;36212;48.838;9.142;2022-08-30T01:46:43;7.40;;;5.97;;
2544;SDS011;36212;48.838;9.142;2022-08-30T01:49:18;7.83;;;7.13;;
2544;SDS011;36212;48.838;9.142;2022-08-30T01:51:59;6.70;;;6.30;;
2544;SDS011;36212;48.838;9.142;2022-08-30T01:54:35;8.90;;;6.65;;
2544;SDS011;36212;48.838;9.142;2022-08-30T01:57:11;7.40;;;6.10;;
2544;SDS011;36212;48.838;9.142;2022-08-30T01:59:47;10.23;;;6.85;;
2544;SDS011;36212;48.838;9.142;2022-08-30T02:02:22;7.07;;;6.43;;
2544;SDS011;36212;48.838;9.142;2022-08-30T02:04:57;6.73;;;6.13;;
2544;SDS011;36212;48.838;9.142;2022-08-30T02:07:29;6.77;;;6.17;;
2544;SDS011;36212;48.838;9.142;2022-08-30T02:10:02;6.73;;;6.20;;
2544;SDS011;36212;48.838;9.142;2022-08-30T02:12:35;6.60;;;6.07;;
2544;SDS011;36212;48.838;9.142;2022-08-30T02:15:07;7.23;;;6.67;;
2544;SDS011;36212;48.838;9.142;2022-08-30T02:17:42;6.87;;;6.27;;
2544;SDS011;36212;48.838;9.142;2022-08-30T02:20:15;7.65;;;6.30;;
2544;SDS011;36212;48.838;9.142;2022-08-30T02:22:47;7.07;;;6.57;;
2544;SDS011;36212;48.838;9.142;2022-08-30T02:25:19;6.90;;;6.40;;
2544;SDS011;36212;48.838;9.142;2022-08-30T02:27:52;7.00;;;6.40;;
2544;SDS011;36212;48.838;9.142;2022-08-30T02:30:24;7.32;;;6.72;;
2544;SDS011;36212;48.838;9.142;2022-08-30T02:32:56;7.38;;;6.70;;
2544;SDS011;36212;48.838;9.142;2022-08-30T02:35:29;8.07;;;7.43;;
2544;SDS011;36212;48.838;9.142;2022-08-30T02:38:01;7.72;;;7.03;;
2544;SDS011;36212;48.838;9.142;2022-08-30T02:40:34;8.00;;;7.20;;
2544;SDS011;36212;48.838;9.142;2022-08-30T02:43:10;8.80;;;8.10;;
2544;SDS011;36212;48.838;9.142;2022-08-30T02:45:42;9.88;;;7.70;;
2544;SDS011;36212;48.838;9.142;2022-08-30T02:48:14;12.37;;;7.50;;
2544;SDS011;36212;48.838;9.142;2022-08-30T02:50:48;8.88;;;8.07;;
2544;SDS011;36212;48.838;9.142;2022-08-30T02:53:22;7.47;;;6.78;;
2544;SDS011;36212;48.838;9.142;2022-08-30T02:55:57;7.77;;;7.20;;
2544;SDS011;36212;48.838;9.142;2022-08-30T02:58:30;7.13;;;6.43;;
2544;SDS011;36212;48.838;9.142;2022-08-30T03:01:03;7.13;;;6.53;;
2544;SDS011;36212;48.838;9.142;2022-08-30T03:03:36;7.20;;;6.70;;
2544;SDS011;36212;48.838;9.142;2022-08-30T03:06:09;7.45;;;6.85;;
2544;SDS011;36212;48.838;9.142;2022-08-30T03:08:42;7.10;;;6.60;;
2544;SDS011;36212;48.838;9.142;2022-08-30T03:11:14;7.38;;;6.78;;
2544;SDS011;36212;48.838;9.142;2022-08-30T03:13:46;7.60;;;7.00;;
2544;SDS011;36212;48.838;9.142;2022-08-30T03:16:19;8.52;;;7.55;;
2544;SDS011;36212;48.838;9.142;2022-08-30T03:18:53;7.53;;;6.60;;
2544;SDS011;36212;48.838;9.142;2022-08-30T03:21:25;7.67;;;7.17;;
2544;SDS011;36212;48.838;9.142;2022-08-30T03:23:57;7.93;;;6.50;;
2544;SDS011;36212;48.838;9.142;2022-08-30T03:26:29;7.10;;;6.37;;
2544;SDS011;36212;48.838;9.142;2022-08-30T03:29:01;7.53;;;6.82;;
2544;SDS011;36212;48.838;9.142;2022-08-30T03:31:34;7.72;;;7.00;;
2544;SDS011;36212;48.838;9.142;2022-08-30T03:34:23;9.13;;;7.30;;
2544;SDS011;36212;48.838;9.142;2022-08-30T03:36:56;7.10;;;6.60;;
2544;SDS011;36212;48.838;9.142;2022-08-30T03:39:30;8.15;;;7.35;;
2544;SDS011;36212;48.838;9.142;2022-08-30T03:42:02;8.18;;;7.40;;
2544;SDS011;36212;48.838;9.142;2022-08-30T03:44:36;7.70;;;7.00;;
2544;SDS011;36212;48.838;9.142;2022-08-30T03:47:09;8.13;;;7.40;;
2544;SDS011;36212;48.838;9.142;2022-08-30T03:49:41;8.55;;;7.72;;
2544;SDS011;36212;48.838;9.142;2022-08-30T03:52:13;7.38;;;6.78;;
2544;SDS011;36212;48.838;9.142;2022-08-30T03:54:46;7.82;;;7.25;;
2544;SDS011;36212;48.838;9.142;2022-08-30T03:57:18;7.13;;;6.47;;
2544;SDS011;36212;48.838;9.142;2022-08-30T03:59:55;8.15;;;7.47;;
2544;SDS011;36212;48.838;9.142;2022-08-30T04:02:28;8.52;;;7.30;;
2544;SDS011;36212;48.838;9.142;2022-08-30T04:05:00;7.45;;;6.85;;
2544;SDS011;36212;48.838;9.142;2022-08-30T04:07:33;7.50;;;6.90;;
2544;SDS011;36212;48.838;9.142;2022-08-30T04:10:06;7.70;;;7.05;;
2544;SDS011;36212;48.838;9.142;2022-08-30T04:12:39;8.60;;;7.90;;
2544;SDS011;36212;48.838;9.142;2022-08-30T04:15:17;9.73;;;7.80;;
2544;SDS011;36212;48.838;9.142;2022-08-30T04:17:49;8.38;;;7.70;;
2544;SDS011;36212;48.838;9.142;2022-08-30T04:20:24;7.85;;;7.25;;
2544;SDS011;36212;48.838;9.142;2022-08-30T04:22:56;8.30;;;7.70;;
2544;SDS011;36212;48.838;9.142;2022-08-30T04:25:28;8.60;;;7.85;;
2544;SDS011;36212;48.838;9.142;2022-08-30T04:28:01;9.18;;;8.38;;
2544;SDS011;36212;48.838;9.142;2022-08-30T04:30:37;9.27;;;8.40;;
2544;SDS011;36212;48.838;9.142;2022-08-30T04:33:13;9.50;;;8.60;;
2544;SDS011;36212;48.838;9.142;2022-08-30T04:35:47;9.80;;;8.48;;
2544;SDS011;36212;48.838;9.142;2022-08-30T04:38:20;9.93;;;8.95;;
2544;SDS011;36212;48.838;9.142;2022-08-30T04:40:53;9.45;;;8.57;;
2544;SDS011;36212;48.838;9.142;2022-08-30T04:43:25;8.90;;;8.10;;
2544;SDS011;36212;48.838;9.142;2022-08-30T04:45:58;7.70;;;7.00;;
2544;SDS011;36212;48.838;9.142;2022-08-30T04:48:36;8.52;;;7.80;;
2544;SDS011;36212;48.838;9.142;2022-08-30T04:51:10;7.35;;;6.75;;
2544;SDS011;36212;48.838;9.142;2022-08-30T04:53:46;10.23;;;7.88;;
2544;SDS011;36212;48.838;9.142;2022-08-30T04:56:19;8.40;;;7.87;;
2544;SDS011;36212;48.838;9.142;2022-08-30T04:58:53;8.23;;;7.50;;
2544;SDS011;36212;48.838;9.142;2022-08-30T05:01:28;8.25;;;7.60;;
2544;SDS011;36212;48.838;9.142;2022-08-30T05:04:02;8.98;;;8.10;;
2544;SDS011;36212;48.838;9.142;2022-08-30T05:06:36;7.95;;;7.25;;
2544;SDS011;36212;48.838;9.142;2022-08-30T05:09:08;8.55;;;7.65;;
2544;SDS011;36212;48.838;9.142;2022-08-30T05:11:40;7.20;;;6.68;;
2544;SDS011;36212;48.838;9.142;2022-08-30T05:14:15;8.25;;;7.47;;
2544;SDS011;36212;48.838;9.142;2022-08-30T05:16:47;8.27;;;7.57;;
2544;SDS011;36212;48.838;9.142;2022-08-30T05:19:19;8.13;;;7.43;;
2544;SDS011;36212;48.838;9.142;2022-08-30T05:21:52;9.95;;;7.80;;
2544;SDS011;36212;48.838;9.142;2022-08-30T05:24:24;9.30;;;7.83;;
2544;SDS011;36212;48.838;9.142;2022-08-30T05:26:57;8.50;;;7.80;;
2544;SDS011;36212;48.838;9.142;2022-08-30T05:29:30;8.15;;;7.45;;
2544;SDS011;36212;48.838;9.142;2022-08-30T05:32:03;8.17;;;7.47;;
2544;SDS011;36212;48.838;9.142;2022-08-30T05:34:35;11.90;;;8.60;;
2544;SDS011;36212;48.838;9.142;2022-08-30T05:37:07;8.80;;;8.20;;
2544;SDS011;36212;48.838;9.142;2022-08-30T05:39:39;9.27;;;8.30;;
2544;SDS011;36212;48.838;9.142;2022-08-30T05:42:22;10.67;;;9.10;;
2544;SDS011;36212;48.838;9.142;2022-08-30T05:44:54;9.82;;;8.95;;
2544;SDS011;36212;48.838;9.142;2022-08-30T05:47:26;9.65;;;8.75;;
2544;SDS011;36212;48.838;9.142;2022-08-30T05:49:59;10.80;;;9.00;;
2544;SDS011;36212;48.838;9.142;2022-08-30T05:52:33;9.40;;;8.67;;
2544;SDS011;36212;48.838;9.142;2022-08-30T05:55:08;10.33;;;9.30;;
2544;SDS011;36212;48.838;9.142;2022-08-30T05:57:41;10.53;;;9.73;;
2544;SDS011;36212;48.838;9.142;2022-08-30T06:00:15;12.13;;;11.03;;
2544;SDS011;36212;48.838;9.142;2022-08-30T06:02:51;11.00;;;9.90;;
2544;SDS011;36212;48.838;9.142;2022-08-30T06:05:24;10.43;;;9.27;;
2544;SDS011;36212;48.838;9.142;2022-08-30T06:07:56;11.50;;;10.27;;
2544;SDS011;36212;48.838;9.142;2022-08-30T06:10:28;12.37;;;11.03;;
2544;SDS011;36212;48.838;9.142;2022-08-30T06:13:01;11.33;;;10.33;;
2544;SDS011;36212;48.838;9.142;2022-08-30T06:15:33;12.57;;;10.43;;
2544;SDS011;36212;48.838;9.142;2022-08-30T06:18:05;11.87;;;10.73;;
2544;SDS011;36212;48.838;9.142;2022-08-30T06:20:38;11.07;;;9.97;;
2544;SDS011;36212;48.838;9.142;2022-08-30T06:23:16;19.10;;;11.03;;
2544;SDS011;36212;48.838;9.142;2022-08-30T06:25:49;10.47;;;9.67;;
2544;SDS011;36212;48.838;9.142;2022-08-30T06:28:21;11.40;;;10.23;;
2544;SDS011;36212;48.838;9.142;2022-08-30T06:30:55;10.33;;;9.33;;
2544;SDS011;36212;48.838;9.142;2022-08-30T06:33:28;10.40;;;9.50;;
2544;SDS011;36212;48.838;9.142;2022-08-30T06:36:00;11.40;;;10.40;;
2544;SDS011;36212;48.838;9.142;2022-08-30T06:38:40;10.83;;;9.83;;
2544;SDS011;36212;48.838;9.142;2022-08-30T06:41:16;10.47;;;9.67;;
2544;SDS011;36212;48.838;9.142;2022-08-30T06:43:52;12.40;;;11.10;;
2544;SDS011;36212;48.838;9.142;2022-08-30T06:46:27;13.13;;;11.60;;
2544;SDS011;36212;48.838;9.142;2022-08-30T06:49:05;12.50;;;11.23;;
2544;SDS011;36212;48.838;9.142;2022-08-30T06:51:38;11.27;;;10.27;;
2544;SDS011;36212;48.838;9.142;2022-08-30T06:54:11;11.53;;;10.43;;
2544;SDS011;36212;48.838;9.142;2022-08-30T06:56:43;11.63;;;10.43;;
2544;SDS011;36212;48.838;9.142;2022-08-30T06:59:29;10.00;;;9.10;;
2544;SDS011;36212;48.838;9.142;2022-08-30T07:02:03;10.37;;;9.57;;
2544;SDS011;36212;48.838;9.142;2022-08-30T07:04:43;10.60;;;9.70;;
2544;SDS011;36212;48.838;9.142;2022-08-30T07:07:15;10.10;;;9.40;;
2544;SDS011;36212;48.838;9.142;2022-08-30T07:09:47;9.70;;;8.80;;
2544;SDS011;36212;48.838;9.142;2022-08-30T07:12:19;8.73;;;7.80;;
2544;SDS011;36212;48.838;9.142;2022-08-30T07:14:52;8.90;;;8.10;;
2544;SDS011;36212;48.838;9.142;2022-08-30T07:17:24;8.77;;;7.87;;
2544;SDS011;36212;48.838;9.142;2022-08-30T07:20:36;8.23;;;7.43;;
2544;SDS011;36212;48.838;9.142;2022-08-30T07:23:11;6.47;;;5.93;;
2544;SDS011;36212;48.838;9.142;2022-08-30T07:25:43;7.00;;;6.30;;
2544;SDS011;36212;48.838;9.142;2022-08-30T07:28:15;8.43;;;7.10;;
2544;SDS011;36212;48.838;9.142;2022-08-30T07:30:48;7.63;;;6.93;;
2544;SDS011;36212;48.838;9.142;2022-08-30T07:33:20;7.60;;;6.80;;
2544;SDS011;36212;48.838;9.142;2022-08-30T07:35:52;8.13;;;6.93;;
2544;SDS011;36212;48.838;9.142;2022-08-30T07:38:25;8.10;;;7.50;;
2544;SDS011;36212;48.838;9.142;2022-08-30T07:41:00;8.30;;;7.67;;
2544;SDS011;36212;48.838;9.142;2022-08-30T07:43:34;8.17;;;7.10;;
2544;SDS011;36212;48.838;9.142;2022-08-30T07:46:07;10.57;;;8.37;;
2544;SDS011;36212;48.838;9.142;2022-08-30T07:48:40;9.27;;;8.50;;
2544;SDS011;36212;48.838;9.142;2022-08-30T07:51:16;8.03;;;7.37;;
2544;SDS011;36212;48.838;9.142;2022-08-30T07:53:53;10.50;;;7.93;;
2544;SDS011;36212;48.838;9.142;2022-08-30T07:56:26;8.70;;;7.57;;
2544;SDS011;36212;48.838;9.142;2022-08-30T07:58:58;8.87;;;7.90;;
2544;SDS011;36212;48.838;9.142;2022-08-30T08:01:31;9.57;;;8.20;;
2544;SDS011;36212;48.838;9.142;2022-08-30T08:04:03;8.40;;;7.73;;
2544;SDS011;36212;48.838;9.142;2022-08-30T08:06:37;7.80;;;7.20;;
2544;SDS011;36212;48.838;9.142;2022-08-30T08:09:13;8.00;;;7.27;;
2544;SDS011;36212;48.838;9.142;2022-08-30T08:11:45;7.60;;;7.03;;
2544;SDS011;36212;48.838;9.142;2022-08-30T08:14:17;8.10;;;7.47;;
2544;SDS011;36212;48.838;9.142;2022-08-30T08:16:52;8.00;;;6.93;;
2544;SDS011;36212;48.838;9.142;2022-08-30T08:19:45;7.60;;;6.93;;
2544;SDS011;36212;48.838;9.142;2022-08-30T08:22:17;7.83;;;6.97;;
2544;SDS011;36212;48.838;9.142;2022-08-30T08:24:52;9.27;;;6.67;;
2544;SDS011;36212;48.838;9.142;2022-08-30T08:27:24;6.77;;;6.17;;
2544;SDS011;36212;48.838;9.142;2022-08-30T08:29:56;12.33;;;6.93;;
2544;SDS011;36212;48.838;9.142;2022-08-30T08:32:28;6.77;;;6.20;;
2544;SDS011;36212;48.838;9.142;2022-08-30T08:35:00;7.57;;;6.87;;
2544;SDS011;36212;48.838;9.142;2022-08-30T08:37:33;7.47;;;6.67;;
2544;SDS011;36212;48.838;9.142;2022-08-30T08:40:05;7.70;;;7.07;;
2544;SDS011;36212;48.838;9.142;2022-08-30T08:48:59;6.10;;;5.60;;
2544;SDS011;36212;48.838;9.142;2022-08-30T08:51:37;5.87;;;5.47;;
2544;SDS011;36212;48.838;9.142;2022-08-30T08:54:50;11.17;;;5.73;;
2544;SDS011;36212;48.838;9.142;2022-08-30T08:57:35;6.30;;;5.70;;
2544;SDS011;36212;48.838;9.142;2022-08-30T09:00:09;6.07;;;5.60;;
2544;SDS011;36212;48.838;9.142;2022-08-30T09:02:45;6.93;;;6.13;;
2544;SDS011;36212;48.838;9.142;2022-08-30T09:05:36;5.97;;;5.47;;
2544;SDS011;36212;48.838;9.142;2022-08-30T09:08:14;6.00;;;5.47;;
2544;SDS011;36212;48.838;9.142;2022-08-30T09:10:59;6.27;;;5.23;;
2544;SDS011;36212;48.838;9.142;2022-08-30T09:13:36;7.27;;;5.20;;
2544;SDS011;36212;48.838;9.142;2022-08-30T09:16:08;6.70;;;5.37;;
2544;SDS011;36212;48.838;9.142;2022-08-30T09:28:06;5.80;;;5.30;;
2544;SDS011;36212;48.838;9.142;2022-08-30T09:30:56;5.90;;;5.40;;
2544;SDS011;36212;48.838;9.142;2022-08-30T09:33:36;5.90;;;5.40;;
2544;SDS011;36212;48.838;9.142;2022-08-30T09:36:12;5.93;;;5.50;;
2544;SDS011;36212;48.838;9.142;2022-08-30T09:38:55;7.43;;;5.77;;
2544;SDS011;36212;48.838;9.142;2022-08-30T09:42:19;5.67;;;5.27;;
2544;SDS011;36212;48.838;9.142;2022-08-30T09:44:58;5.10;;;4.80;;
2544;SDS011;36212;48.838;9.142;2022-08-30T09:47:48;5.57;;;5.07;;
2544;SDS011;36212;48.838;9.142;2022-08-30T09:50:20;6.57;;;5.20;;
2544;SDS011;36212;48.838;9.142;2022-08-30T09:52:58;5.47;;;4.97;;
2544;SDS011;36212;48.838;9.142;2022-08-30T09:56:07;6.60;;;6.00;;
2544;SDS011;36212;48.838;9.142;2022-08-30T09:59:44;5.70;;;5.40;;
2544;SDS011;36212;48.838;9.142;2022-08-30T10:05:57;5.90;;;5.40;;
2544;SDS011;36212;48.838;9.142;2022-08-30T10:24:27;5.90;;;5.40;;
2544;SDS011;36212;48.838;9.142;2022-08-30T10:27:15;5.50;;;5.20;;
2544;SDS011;36212;48.838;9.142;2022-08-30T10:30:05;5.53;;;5.13;;
2544;SDS011;36212;48.838;9.142;2022-08-30T10:32:51;5.70;;;5.30;;
2544;SDS011;36212;48.838;9.142;2022-08-30T10:35:45;5.10;;;4.80;;
2544;SDS011;36212;48.838;9.142;2022-08-30T10:44:07;4.97;;;4.67;;
2544;SDS011;36212;48.838;9.142;2022-08-30T10:47:07;5.63;;;5.23;;
2544;SDS011;36212;48.838;9.142;2022-08-30T10:50:33;4.83;;;4.60;;
2544;SDS011;36212;48.838;9.142;2022-08-30T10:56:26;5.80;;;5.30;;
2544;SDS011;36212;48.838;9.142;2022-08-30T10:59:00;6.23;;;5.63;;
2544;SDS011;36212;48.838;9.142;2022-08-30T11:14:09;5.97;;;5.57;;
2544;SDS011;36212;48.838;9.142;2022-08-30T11:16:48;6.43;;;6.03;;
2544;SDS011;36212;48.838;9.142;2022-08-30T11:19:27;6.00;;;5.57;;
2544;SDS011;36212;48.838;9.142;2022-08-30T11:22:22;5.60;;;4.97;;
2544;SDS011;36212;48.838;9.142;2022-08-30T11:31:35;4.30;;;4.00;;
2544;SDS011;36212;48.838;9.142;2022-08-30T11:34:11;5.13;;;4.70;;
2544;SDS011;36212;48.838;9.142;2022-08-30T11:37:31;4.80;;;4.40;;
2544;SDS011;36212;48.838;9.142;2022-08-30T11:46:34;5.80;;;5.33;;
2544;SDS011;36212;48.838;9.142;2022-08-30T11:58:14;5.33;;;4.93;;
2544;SDS011;36212;48.838;9.142;2022-08-30T12:01:20;5.40;;;5.00;;
2544;SDS011;36212;48.838;9.142;2022-08-30T12:07:08;4.90;;;4.50;;
2544;SDS011;36212;48.838;9.142;2022-08-30T12:15:57;4.97;;;4.47;;
2544;SDS011;36212;48.838;9.142;2022-08-30T12:24:01;4.93;;;4.63;;
2544;SDS011;36212;48.838;9.142;2022-08-30T12:26:54;5.40;;;5.00;;
2544;SDS011;36212;48.838;9.142;2022-08-30T12:29:49;5.23;;;4.90;;
2544;SDS011;36212;48.838;9.142;2022-08-30T12:35:24;5.13;;;4.77;;
2544;SDS011;36212;48.838;9.142;2022-08-30T12:38:00;4.87;;;4.57;;
2544;SDS011;36212;48.838;9.142;2022-08-30T12:40:49;5.30;;;4.90;;
2544;SDS011;36212;48.838;9.142;2022-08-30T12:46:23;5.30;;;4.90;;
2544;SDS011;36212;48.838;9.142;2022-08-30T12:48:56;5.53;;;5.13;;
2544;SDS011;36212;48.838;9.142;2022-08-30T12:51:33;4.57;;;4.37;;
2544;SDS011;36212;48.838;9.142;2022-08-30T12:54:17;9.33;;;4.87;;
2544;SDS011;36212;48.838;9.142;2022-08-30T12:57:02;5.23;;;4.90;;
2544;SDS011;36212;48.838;9.142;2022-08-30T13:00:07;5.17;;;4.90;;
2544;SDS011;36212;48.838;9.142;2022-08-30T13:03:04;4.23;;;3.93;;
2544;SDS011;36212;48.838;9.142;2022-08-30T13:06:03;5.10;;;4.70;;
2544;SDS011;36212;48.838;9.142;2022-08-30T13:08:48;5.17;;;4.73;;
2544;SDS011;36212;48.838;9.142;2022-08-30T13:11:24;6.43;;;4.60;;
2544;SDS011;36212;48.838;9.142;2022-08-30T13:25:39;4.53;;;4.23;;
2544;SDS011;36212;48.838;9.142;2022-08-30T13:28:11;6.10;;;4.73;;
2544;SDS011;36212;48.838;9.142;2022-08-30T13:30:43;5.27;;;4.87;;
2544;SDS011;36212;48.838;9.142;2022-08-30T13:33:15;4.67;;;4.33;;
2544;SDS011;36212;48.838;9.142;2022-08-30T13:35:49;4.57;;;4.27;;
2544;SDS011;36212;48.838;9.142;2022-08-30T13:38:24;5.53;;;5.03;;
2544;SDS011;36212;48.838;9.142;2022-08-30T13:40:57;4.87;;;4.57;;
2544;SDS011;36212;48.838;9.142;2022-08-30T13:43:29;4.50;;;4.20;;
2544;SDS011;36212;48.838;9.142;2022-08-30T13:46:21;6.10;;;4.90;;
2544;SDS011;36212;48.838;9.142;2022-08-30T13:49:01;8.07;;;4.80;;
2544;SDS011;36212;48.838;9.142;2022-08-30T13:52:02;16.13;;;6.00;;
2544;SDS011;36212;48.838;9.142;2022-08-30T13:54:52;6.23;;;5.10;;
2544;SDS011;36212;48.838;9.142;2022-08-30T13:57:27;5.00;;;4.60;;
2544;SDS011;36212;48.838;9.142;2022-08-30T14:00:20;8.37;;;4.70;;
2544;SDS011;36212;48.838;9.142;2022-08-30T14:02:54;6.53;;;5.40;;
2544;SDS011;36212;48.838;9.142;2022-08-30T14:05:31;6.43;;;4.90;;
2544;SDS011;36212;48.838;9.142;2022-08-30T14:08:27;4.90;;;4.70;;
2544;SDS011;36212;48.838;9.142;2022-08-30T14:11:21;4.33;;;4.10;;
2544;SDS011;36212;48.838;9.142;2022-08-30T14:13:53;4.70;;;4.40;;
2544;SDS011;36212;48.838;9.142;2022-08-30T14:16:45;4.73;;;4.43;;
2544;SDS011;36212;48.838;9.142;2022-08-30T14:19:17;5.47;;;5.00;;
2544;SDS011;36212;48.838;9.142;2022-08-30T14:21:50;5.33;;;4.93;;
2544;SDS011;36212;48.838;9.142;2022-08-30T14:24:22;4.60;;;4.23;;
2544;SDS011;36212;48.838;9.142;2022-08-30T14:26:54;5.43;;;5.03;;
2544;SDS011;36212;48.838;9.142;2022-08-30T14:29:26;5.00;;;4.70;;
2544;SDS011;36212;48.838;9.142;2022-08-30T14:32:00;4.97;;;4.40;;
2544;SDS011;36212;48.838;9.142;2022-08-30T14:34:33;5.33;;;4.83;;
2544;SDS011;36212;48.838;9.142;2022-08-30T14:37:05;5.47;;;4.70;;
2544;SDS011;36212;48.838;9.142;2022-08-30T14:39:37;4.67;;;4.27;;
2544;SDS011;36212;48.838;9.142;2022-08-30T14:42:09;5.03;;;4.73;;
2544;SDS011;36212;48.838;9.142;2022-08-30T14:44:49;5.43;;;4.90;;
2544;SDS011;36212;48.838;9.142;2022-08-30T14:47:27;4.87;;;4.57;;
2544;SDS011;36212;48.838;9.142;2022-08-30T14:50:00;6.10;;;4.90;;
2544;SDS011;36212;48.838;9.142;2022-08-30T14:52:34;6.87;;;5.17;;
2544;SDS011;36212;48.838;9.142;2022-08-30T14:55:07;5.57;;;5.07;;
2544;SDS011;36212;48.838;9.142;2022-08-30T14:57:41;6.03;;;5.10;;
2544;SDS011;36212;48.838;9.142;2022-08-30T15:00:13;5.20;;;4.80;;
2544;SDS011;36212;48.838;9.142;2022-08-30T15:02:46;4.97;;;4.67;;
2544;SDS011;36212;48.838;9.142;2022-08-30T15:05:19;5.10;;;4.70;;
2544;SDS011;36212;48.838;9.142;2022-08-30T15:07:51;5.37;;;4.87;;
2544;SDS011;36212;48.838;9.142;2022-08-30T15:10:23;4.70;;;4.47;;
2544;SDS011;36212;48.838;9.142;2022-08-30T15:12:55;4.53;;;4.33;;
2544;SDS011;36212;48.838;9.142;2022-08-30T15:15:27;5.63;;;5.13;;
2544;SDS011;36212;48.838;9.142;2022-08-30T15:18:00;19.80;;;6.37;;
2544;SDS011;36212;48.838;9.142;2022-08-30T15:20:34;12.53;;;5.77;;
2544;SDS011;36212;48.838;9.142;2022-08-30T15:23:14;13.27;;;6.87;;
2544;SDS011;36212;48.838;9.142;2022-08-30T15:25:47;8.63;;;5.13;;
2544;SDS011;36212;48.838;9.142;2022-08-30T15:28:19;5.53;;;4.80;;
2544;SDS011;36212;48.838;9.142;2022-08-30T15:30:51;5.20;;;4.90;;
2544;SDS011;36212;48.838;9.142;2022-08-30T15:33:24;5.03;;;4.70;;
2544;SDS011;36212;48.838;9.142;2022-08-30T15:36:00;6.07;;;5.47;;
2544;SDS011;36212;48.838;9.142;2022-08-30T15:38:35;5.20;;;4.90;;
2544;SDS011;36212;48.838;9.142;2022-08-30T15:41:09;5.00;;;4.60;;
2544;SDS011;36212;48.838;9.142;2022-08-30T15:43:42;6.60;;;5.27;;
2544;SDS011;36212;48.838;9.142;2022-08-30T15:49:07;5.27;;;4.90;;
2544;SDS011;36212;48.838;9.142;2022-08-30T15:51:48;11.10;;;6.07;;
2544;SDS011;36212;48.838;9.142;2022-08-30T15:54:29;5.70;;;5.27;;
2544;SDS011;36212;48.838;9.142;2022-08-30T15:57:02;4.63;;;4.33;;
2544;SDS011;36212;48.838;9.142;2022-08-30T15:59:36;5.67;;;5.30;;
2544;SDS011;36212;48.838;9.142;2022-08-30T16:02:08;7.63;;;5.50;;
2544;SDS011;36212;48.838;9.142;2022-08-30T16:04:41;5.00;;;4.60;;
2544;SDS011;36212;48.838;9.142;2022-08-30T16:07:13;5.63;;;5.23;;
2544;SDS011;36212;48.838;9.142;2022-08-30T16:09:46;5.93;;;5.53;;
2544;SDS011;36212;48.838;9.142;2022-08-30T16:12:18;5.30;;;5.00;;
2544;SDS011;36212;48.838;9.142;2022-08-30T16:14:54;5.53;;;5.13;;
2544;SDS011;36212;48.838;9.142;2022-08-30T16:17:26;6.10;;;5.50;;
2544;SDS011;36212;48.838;9.142;2022-08-30T16:20:01;5.50;;;5.10;;
2544;SDS011;36212;48.838;9.142;2022-08-30T16:22:34;5.90;;;4.63;;
2544;SDS011;36212;48.838;9.142;2022-08-30T16:25:06;5.20;;;4.90;;
2544;SDS011;36212;48.838;9.142;2022-08-30T16:27:39;5.70;;;5.23;;
2544;SDS011;36212;48.838;9.142;2022-08-30T16:30:13;8.67;;;5.10;;
2544;SDS011;36212;48.838;9.142;2022-08-30T16:32:46;5.83;;;5.33;;
2544;SDS011;36212;48.838;9.142;2022-08-30T16:35:19;5.70;;;5.20;;
2544;SDS011;36212;48.838;9.142;2022-08-30T16:37:52;6.60;;;5.80;;
2544;SDS011;36212;48.838;9.142;2022-08-30T16:40:25;8.57;;;5.33;;
2544;SDS011;36212;48.838;9.142;2022-08-30T16:42:58;6.50;;;6.00;;
2544;SDS011;36212;48.838;9.142;2022-08-30T16:45:30;5.80;;;5.30;;
2544;SDS011;36212;48.838;9.142;2022-08-30T16:48:07;4.90;;;4.60;;
2544;SDS011;36212;48.838;9.142;2022-08-30T16:50:45;5.83;;;5.23;;
2544;SDS011;36212;48.838;9.142;2022-08-30T16:53:17;6.00;;;5.70;;
2544;SDS011;36212;48.838;9.142;2022-08-30T16:55:50;5.93;;;5.40;;
2544;SDS011;36212;48.838;9.142;2022-08-30T16:58:23;5.73;;;5.23;;
2544;SDS011;36212;48.838;9.142;2022-08-30T17:00:56;5.67;;;5.20;;
2544;SDS011;36212;48.838;9.142;2022-08-30T17:03:29;5.17;;;4.87;;
2544;SDS011;36212;48.838;9.142;2022-08-30T17:06:01;5.50;;;5.20;;
2544;SDS011;36212;48.838;9.142;2022-08-30T17:08:34;6.33;;;5.20;;
2544;SDS011;36212;48.838;9.142;2022-08-30T17:11:08;6.77;;;6.07;;
2544;SDS011;36212;48.838;9.142;2022-08-30T17:13:42;5.70;;;5.30;;
2544;SDS011;36212;48.838;9.142;2022-08-30T17:16:14;6.03;;;5.43;;
2544;SDS011;36212;48.838;9.142;2022-08-30T17:18:53;5.20;;;4.73;;
2544;SDS011;36212;48.838;9.142;2022-08-30T17:21:30;6.30;;;5.70;;
2544;SDS011;36212;48.838;9.142;2022-08-30T17:24:03;6.10;;;5.60;;
2544;SDS011;36212;48.838;9.142;2022-08-30T17:26:36;6.07;;;5.57;;
2544;SDS011;36212;48.838;9.142;2022-08-30T17:29:10;6.50;;;5.50;;
2544;SDS011;36212;48.838;9.142;2022-08-30T17:31:46;9.00;;;5.30;;
2544;SDS011;36212;48.838;9.142;2022-08-30T17:34:22;5.70;;;5.30;;
2544;SDS011;36212;48.838;9.142;2022-08-30T17:36:57;5.47;;;5.17;;
2544;SDS011;36212;48.838;9.142;2022-08-30T17:39:30;5.77;;;5.27;;
2544;SDS011;36212;48.838;9.142;2022-08-30T17:42:03;6.30;;;5.90;;
2544;SDS011;36212;48.838;9.142;2022-08-30T17:44:36;6.10;;;5.50;;
2544;SDS011;36212;48.838;9.142;2022-08-30T17:47:12;5.40;;;5.10;;
2544;SDS011;36212;48.838;9.142;2022-08-30T17:49:45;6.13;;;5.53;;